Time;durP1;ratioP1;P1;durP2;ratioP2;P2;SDS_P1;SDS_P2;PMS_P1;PMS_P2;Temp;Humidity;BMP_temperature;BMP_pressure;BME280_temperature;BME280_humidity;BME280_pressure;Samples;Min_cycle;Max_cycle;Signal;HPM_P1;HPM_P2
2024/04/11 00:01:18;;;;;;;72.33;69.33;;;23.10;1.00;;;;;;2609852;54;20166;-70
2024/04/11 00:03:44;;;;;;;72.17;69.17;;;23.10;1.00;;;;;;2609978;54;20759;-69
2024/04/11 00:06:09;;;;;;;71.53;68.53;;;23.10;1.00;;;;;;2608740;54;20186;-70
2024/04/11 00:08:35;;;;;;;71.90;68.90;;;23.10;1.00;;;;;;2610114;54;20147;-70
2024/04/11 00:11:01;;;;;;;71.40;68.40;;;23.10;1.00;;;;;;2610034;54;20158;-70
2024/04/11 00:13:26;;;;;;;72.40;69.40;;;23.10;1.00;;;;;;2610450;54;20151;-70
2024/04/11 00:15:55;;;;;;;73.27;70.17;;;23.10;1.00;;;;;;2611866;39;20743;-71
2024/04/11 00:18:25;;;;;;;72.97;69.97;;;23.10;1.00;;;;;;2610999;54;20280;-72
2024/04/11 00:20:54;;;;;;;72.07;69.07;;;23.10;1.00;;;;;;2610729;54;20428;-73
2024/04/11 00:23:21;;;;;;;71.30;68.30;;;23.10;1.00;;;;;;2611066;47;20419;-72
2024/04/11 00:25:57;;;;;;;72.70;69.70;;;23.10;1.00;;;;;;2611718;54;20502;-72
2024/04/11 00:28:25;;;;;;;72.77;69.77;;;23.10;1.00;;;;;;2610516;54;20419;-72
2024/04/11 00:30:54;;;;;;;73.13;70.03;;;23.10;1.00;;;;;;2611814;39;20800;-72
2024/04/11 00:33:20;;;;;;;72.70;69.70;;;23.10;1.00;;;;;;2611432;54;20447;-73
2024/04/11 00:35:49;;;;;;;71.83;68.83;;;23.10;1.00;;;;;;2612834;47;20453;-73
2024/04/11 00:38:23;;;;;;;72.80;69.80;;;23.10;1.00;;;;;;2610849;47;20511;-73
2024/04/11 00:40:56;;;;;;;70.50;67.60;;;23.00;1.00;;;;;;2611312;54;20439;-73
2024/04/11 00:43:30;;;;;;;71.90;68.90;;;23.10;1.00;;;;;;2611474;54;21060;-73
2024/04/11 00:45:57;;;;;;;72.03;69.03;;;23.00;1.00;;;;;;2610984;39;20842;-67
2024/04/11 00:48:23;;;;;;;72.57;69.57;;;23.10;1.00;;;;;;2610425;47;20424;-68
2024/04/11 00:50:52;;;;;;;71.10;68.10;;;23.00;1.00;;;;;;2610116;47;21029;-68
2024/04/11 00:53:21;;;;;;;72.50;69.50;;;23.00;1.00;;;;;;2610345;54;20225;-67
2024/04/11 00:55:46;;;;;;;72.73;69.73;;;23.00;1.00;;;;;;2609961;54;20426;-67
2024/04/11 00:58:12;;;;;;;71.63;68.73;;;23.00;1.00;;;;;;2610036;54;20403;-69
2024/04/11 01:00:41;;;;;;;72.53;69.53;;;23.00;1.00;;;;;;2609063;54;20158;-69
2024/04/11 01:03:07;;;;;;;71.20;68.30;;;23.00;1.00;;;;;;2608677;39;20798;-68
2024/04/11 01:05:34;;;;;;;72.67;69.67;;;23.00;1.00;;;;;;2608176;54;20436;-69
2024/04/11 01:08:06;;;;;;;73.47;70.47;;;23.00;1.00;;;;;;2609077;54;20423;-69
2024/04/11 01:10:33;;;;;;;70.47;67.57;;;23.00;1.00;;;;;;2610315;39;20785;-69
2024/04/11 01:12:59;;;;;;;71.03;68.13;;;23.00;1.00;;;;;;2610957;54;20416;-69
2024/04/11 01:15:24;;;;;;;71.03;68.13;;;23.00;1.00;;;;;;2613059;54;20462;-67
2024/04/11 01:17:50;;;;;;;71.00;68.00;;;23.00;1.00;;;;;;2610105;54;20163;-69
2024/04/11 01:20:16;;;;;;;71.40;68.40;;;23.00;1.00;;;;;;2610201;54;20146;-67
2024/04/11 01:22:42;;;;;;;72.17;69.17;;;23.00;1.00;;;;;;2609432;54;20177;-69
2024/04/11 01:25:08;;;;;;;71.50;68.50;;;23.00;1.00;;;;;;2610011;54;20412;-69
2024/04/11 01:27:35;;;;;;;70.67;67.77;;;22.90;1.00;;;;;;2610928;54;20150;-76
2024/04/11 01:30:04;;;;;;;73.07;70.07;;;23.00;1.00;;;;;;2611103;54;20456;-76
2024/04/11 01:32:30;;;;;;;72.10;69.10;;;23.00;1.00;;;;;;2610846;47;20415;-75
2024/04/11 01:34:56;;;;;;;71.97;68.97;;;22.90;1.00;;;;;;2610536;54;20392;-76
2024/04/11 01:37:26;;;;;;;72.57;69.57;;;22.90;1.00;;;;;;2610994;54;20447;-76
2024/04/11 01:39:52;;;;;;;71.13;68.23;;;22.90;1.00;;;;;;2610937;54;20155;-76
2024/04/11 01:42:20;;;;;;;71.63;68.63;;;22.90;1.00;;;;;;2611167;54;21198;-74
2024/04/11 01:44:46;;;;;;;74.00;70.90;;;22.90;1.00;;;;;;2610769;54;20154;-76
2024/04/11 01:47:14;;;;;;;72.90;69.80;;;22.90;1.00;;;;;;2611619;54;20407;-74
2024/04/11 01:49:44;;;;;;;72.67;69.57;;;22.90;1.00;;;;;;2610887;54;20163;-75
2024/04/11 01:52:13;;;;;;;72.27;69.20;;;22.90;1.00;;;;;;2610555;54;20423;-76
2024/04/11 01:54:40;;;;;;;73.07;69.97;;;22.90;1.00;;;;;;2611250;54;20450;-75
2024/04/11 01:57:06;;;;;;;73.90;70.80;;;22.90;1.00;;;;;;2610392;39;20915;-72
2024/04/11 01:59:35;;;;;;;73.43;70.33;;;22.90;1.00;;;;;;2609487;54;20922;-72
2024/04/11 02:02:08;;;;;;;73.23;70.13;;;23.00;1.00;;;;;;2608865;54;20423;-72
2024/04/11 02:04:34;;;;;;;72.73;69.63;;;23.00;1.00;;;;;;2608931;47;20475;-71
2024/04/11 02:07:04;;;;;;;73.10;70.00;;;23.00;1.00;;;;;;2609698;39;21166;-69
2024/04/11 02:09:31;;;;;;;72.93;69.93;;;23.00;1.00;;;;;;2610984;39;20793;-69
2024/04/11 02:11:57;;;;;;;74.40;71.30;;;23.10;1.00;;;;;;2609896;54;20458;-69
2024/04/11 02:14:23;;;;;;;72.30;69.30;;;23.10;1.00;;;;;;2610596;54;20428;-70
2024/04/11 02:16:50;;;;;;;74.10;71.00;;;23.10;1.00;;;;;;2610409;54;20214;-70
2024/04/11 02:19:16;;;;;;;72.10;69.10;;;23.10;1.00;;;;;;2610407;54;20424;-68
2024/04/11 02:21:43;;;;;;;72.67;69.60;;;23.10;1.00;;;;;;2610175;54;22353;-68
2024/04/11 02:24:16;;;;;;;72.23;69.23;;;23.10;1.00;;;;;;2610721;51;20462;-67
2024/04/11 02:26:45;;;;;;;72.77;69.77;;;23.10;1.00;;;;;;2610070;54;20423;-69
2024/04/11 02:29:11;;;;;;;72.87;69.87;;;23.10;1.00;;;;;;2610205;51;20415;-70
2024/04/11 02:31:37;;;;;;;72.40;69.40;;;23.10;1.00;;;;;;2610097;54;20454;-69
2024/04/11 02:34:02;;;;;;;72.67;69.67;;;23.10;1.00;;;;;;2610647;39;21582;-70
2024/04/11 02:36:31;;;;;;;73.57;70.47;;;23.00;1.00;;;;;;2609877;54;20154;-76
2024/04/11 02:38:58;;;;;;;72.03;69.03;;;23.00;1.00;;;;;;2610458;47;20170;-77
2024/04/11 02:41:24;;;;;;;71.47;68.47;;;23.00;1.00;;;;;;2611117;47;20423;-77
2024/04/11 02:43:49;;;;;;;72.80;69.77;;;23.00;1.00;;;;;;2611172;47;20418;-76
2024/04/11 02:46:15;;;;;;;70.87;67.97;;;22.90;1.00;;;;;;2611341;54;20158;-77
2024/04/11 02:48:42;;;;;;;71.23;68.27;;;22.90;1.00;;;;;;2610583;54;21097;-76
2024/04/11 02:51:08;;;;;;;75.03;71.93;;;22.90;1.00;;;;;;2610199;39;20385;-77
2024/04/11 02:53:34;;;;;;;72.30;69.30;;;22.90;1.00;;;;;;2613493;54;20432;-77
2024/04/11 02:56:00;;;;;;;73.10;70.03;;;22.90;1.00;;;;;;2612933;54;22352;-76
2024/04/11 02:58:30;;;;;;;73.27;70.17;;;22.90;1.00;;;;;;2610408;39;20647;-77
2024/04/11 03:01:04;;;;;;;73.33;70.23;;;22.90;1.00;;;;;;2609321;54;20423;-78
2024/04/11 03:03:32;;;;;;;72.40;69.40;;;22.80;1.00;;;;;;2609228;39;20813;-77
2024/04/11 03:06:18;;;;;;;73.20;70.10;;;22.90;1.00;;;;;;2609103;54;20437;-73
2024/04/11 03:08:44;;;;;;;73.17;70.17;;;22.80;1.00;;;;;;2609196;54;20869;-73
2024/04/11 03:11:11;;;;;;;72.83;69.83;;;22.80;1.00;;;;;;2609891;54;20419;-73
2024/04/11 03:13:38;;;;;;;73.93;70.83;;;22.80;1.00;;;;;;2611020;39;20814;-73
2024/04/11 03:16:04;;;;;;;73.40;70.40;;;22.80;1.00;;;;;;2610317;54;20399;-76
2024/04/11 03:18:31;;;;;;;73.07;70.03;;;22.80;1.00;;;;;;2610311;54;20883;-76
2024/04/11 03:20:58;;;;;;;74.87;71.77;;;22.80;1.00;;;;;;2610573;47;20529;-76
2024/04/11 03:23:25;;;;;;;74.00;70.90;;;22.80;1.00;;;;;;2610764;54;20419;-75
2024/04/11 03:25:51;;;;;;;72.90;69.80;;;22.80;1.00;;;;;;2611782;39;20757;-76
2024/04/11 03:28:22;;;;;;;71.40;68.40;;;22.80;1.00;;;;;;2611133;54;20432;-76
2024/04/11 03:30:58;;;;;;;72.93;69.83;;;22.80;1.00;;;;;;2611067;54;20211;-75
2024/04/11 03:33:26;;;;;;;72.80;69.70;;;22.70;1.00;;;;;;2610798;47;20414;-76
2024/04/11 03:36:00;;;;;;;73.63;70.53;;;22.70;1.00;;;;;;2611643;54;20380;-77
2024/04/11 03:38:27;;;;;;;72.87;69.77;;;22.70;1.00;;;;;;2611715;54;20414;-76
2024/04/11 03:41:02;;;;;;;71.90;68.90;;;22.70;1.00;;;;;;2611979;54;21114;-74
2024/04/11 03:43:29;;;;;;;73.47;70.37;;;22.70;1.00;;;;;;2610804;54;20403;-74
2024/04/11 03:46:09;;;;;;;73.00;70.00;;;22.70;1.00;;;;;;2611695;54;20413;-65
2024/04/11 03:48:35;;;;;;;73.20;70.10;;;22.70;1.00;;;;;;2610524;54;20997;-65
2024/04/11 03:51:15;;;;;;;72.90;69.80;;;22.70;1.00;;;;;;2609792;46;20416;-64
2024/04/11 03:53:42;;;;;;;73.17;70.07;;;22.70;1.00;;;;;;2610652;54;20988;-64
2024/04/11 03:56:14;;;;;;;72.00;68.90;;;22.70;1.00;;;;;;2610368;54;20424;-66
2024/04/11 03:58:41;;;;;;;71.83;68.83;;;22.70;1.00;;;;;;2609583;54;20423;-64
2024/04/11 04:01:15;;;;;;;72.90;69.80;;;22.70;1.00;;;;;;2609851;54;20399;-65
2024/04/11 04:03:46;;;;;;;73.43;70.33;;;22.70;1.00;;;;;;2608620;47;20412;-65
2024/04/11 04:06:13;;;;;;;73.60;70.50;;;22.70;1.00;;;;;;2608516;39;21778;-64
2024/04/11 04:08:46;;;;;;;75.17;71.97;;;22.60;1.00;;;;;;2609475;54;20462;-65
2024/04/11 04:11:13;;;;;;;76.27;73.07;;;22.60;1.00;;;;;;2610441;39;20821;-65
2024/04/11 04:13:40;;;;;;;74.30;71.10;;;22.70;1.00;;;;;;2610281;54;20415;-68
2024/04/11 04:16:16;;;;;;;73.70;70.50;;;22.70;1.00;;;;;;2610272;47;20921;-65
2024/04/11 04:18:46;;;;;;;77.10;73.80;;;22.70;1.00;;;;;;2609971;47;20442;-64
2024/04/11 04:21:13;;;;;;;74.40;71.20;;;22.60;1.00;;;;;;2610092;39;20655;-64
2024/04/11 04:23:42;;;;;;;74.90;71.70;;;22.60;1.00;;;;;;2610450;54;21016;-64
2024/04/11 04:26:09;;;;;;;76.47;73.17;;;22.70;1.00;;;;;;2610497;54;22383;-67
2024/04/11 04:28:38;;;;;;;75.20;71.90;;;22.70;1.00;;;;;;2610317;47;20431;-66
2024/04/11 04:31:16;;;;;;;74.03;70.93;;;22.70;1.00;;;;;;2610809;54;20948;-66
2024/04/11 04:33:50;;;;;;;75.80;72.50;;;22.70;1.00;;;;;;2610231;39;20911;-66
2024/04/11 04:36:18;;;;;;;76.10;72.73;;;22.70;1.00;;;;;;2610574;54;20422;-67
2024/04/11 04:38:45;;;;;;;75.93;72.63;;;22.70;1.00;;;;;;2610293;46;20414;-67
2024/04/11 04:41:12;;;;;;;76.97;73.67;;;22.70;1.00;;;;;;2610387;47;20427;-65
2024/04/11 04:43:38;;;;;;;75.80;72.40;;;22.70;1.00;;;;;;2610143;54;20402;-67
2024/04/11 04:46:05;;;;;;;75.23;71.93;;;22.70;1.00;;;;;;2610273;54;20392;-67
2024/04/11 04:48:32;;;;;;;75.40;72.10;;;22.60;1.00;;;;;;2610476;39;20891;-67
2024/04/11 04:50:59;;;;;;;75.10;71.80;;;22.60;1.00;;;;;;2612142;39;20817;-67
2024/04/11 04:53:29;;;;;;;76.37;73.07;;;22.60;1.00;;;;;;2613061;54;20539;-67
2024/04/11 04:55:56;;;;;;;76.07;72.80;;;22.60;1.00;;;;;;2610363;47;20451;-78
2024/04/11 04:58:22;;;;;;;76.43;73.17;;;22.60;1.00;;;;;;2610394;54;20404;-73
2024/04/11 05:00:47;;;;;;;75.13;71.97;;;22.60;1.00;;;;;;2609753;54;20418;-75
2024/04/11 05:03:14;;;;;;;75.20;72.00;;;22.60;1.00;;;;;;2609657;54;20406;-74
2024/04/11 05:05:41;;;;;;;74.80;71.70;;;22.60;1.00;;;;;;2610427;54;20269;-75
2024/04/11 05:08:07;;;;;;;74.87;71.77;;;22.60;1.00;;;;;;2610884;54;20416;-75
2024/04/11 05:10:43;;;;;;;73.60;70.50;;;22.60;1.00;;;;;;2611235;54;20408;-75
2024/04/11 05:13:09;;;;;;;75.70;72.50;;;22.60;1.00;;;;;;2611939;54;20434;-75
2024/04/11 05:15:41;;;;;;;74.90;71.80;;;22.60;1.00;;;;;;2611195;54;21155;-75
2024/04/11 05:18:07;;;;;;;77.30;74.00;;;22.60;1.00;;;;;;2614442;47;20415;-75
2024/04/11 05:20:38;;;;;;;76.30;73.10;;;22.60;1.00;;;;;;2611017;54;20933;-78
2024/04/11 05:23:06;;;;;;;78.43;75.07;;;22.60;1.00;;;;;;2612041;39;20535;-80
2024/04/11 05:25:33;;;;;;;77.63;74.23;;;22.60;1.00;;;;;;2612122;54;20423;-78
2024/04/11 05:28:07;;;;;;;72.90;69.80;;;22.60;1.00;;;;;;2611557;54;20411;-80
2024/04/11 05:30:34;;;;;;;72.70;69.50;;;22.60;1.00;;;;;;2614676;54;20394;-81
2024/04/11 05:32:59;;;;;;;72.50;69.40;;;22.60;1.00;;;;;;2614313;54;20396;-73
2024/04/11 05:35:26;;;;;;;72.83;69.93;;;22.60;1.00;;;;;;2612568;51;20523;-66
2024/04/11 05:37:55;;;;;;;67.87;65.20;;;22.70;1.00;;;;;;2612977;47;20572;-65
2024/04/11 05:40:21;;;;;;;72.50;69.50;;;22.80;1.00;;;;;;2612955;54;20446;-64
2024/04/11 05:42:49;;;;;;;74.10;71.10;;;23.00;1.00;;;;;;2612563;54;20808;-64
2024/04/11 05:45:19;;;;;;;73.80;70.70;;;23.10;1.00;;;;;;2613040;54;20426;-64
2024/04/11 05:47:46;;;;;;;73.80;70.70;;;23.10;1.00;;;;;;2612113;47;20419;-66
2024/04/11 05:50:15;;;;;;;72.37;69.37;;;23.10;1.00;;;;;;2612704;47;20455;-64
2024/04/11 05:52:42;;;;;;;73.50;70.50;;;23.20;1.00;;;;;;2613185;47;20491;-66
2024/04/11 05:55:10;;;;;;;68.70;66.00;;;23.20;1.00;;;;;;2613096;54;20937;-69
2024/04/11 05:57:36;;;;;;;70.70;67.80;;;23.30;1.00;;;;;;2614287;54;20407;-71
2024/04/11 06:00:11;;;;;;;66.30;63.70;;;23.30;1.00;;;;;;2613301;54;20387;-74
2024/04/11 06:02:38;;;;;;;72.37;69.47;;;23.40;1.00;;;;;;2611964;54;20150;-68
2024/04/11 06:05:07;;;;;;;71.50;68.70;;;23.30;1.00;;;;;;2613174;54;20383;-70
2024/04/11 06:07:39;;;;;;;70.20;67.40;;;23.40;1.00;;;;;;2612826;47;20442;-73
2024/04/11 06:10:05;;;;;;;70.63;67.73;;;23.40;1.00;;;;;;2610995;47;20412;-73
2024/04/11 06:12:35;;;;;;;71.93;69.13;;;23.40;1.00;;;;;;2613362;54;20419;-72
2024/04/11 06:15:02;;;;;;;68.70;65.90;;;23.40;1.00;;;;;;2611688;51;20423;-73
2024/04/11 06:17:28;;;;;;;66.60;63.90;;;23.50;1.00;;;;;;2609153;39;21338;-73
2024/04/11 06:20:01;;;;;;;68.47;65.67;;;23.50;1.00;;;;;;2609201;47;21009;-73
2024/04/11 06:22:28;;;;;;;66.90;64.30;;;23.50;1.00;;;;;;2611240;54;20179;-73
2024/04/11 06:24:53;;;;;;;65.07;62.37;;;23.40;1.00;;;;;;2610502;54;20504;-73
2024/04/11 06:27:19;;;;;;;66.27;63.57;;;23.30;1.00;;;;;;2611681;47;20436;-74
2024/04/11 06:29:45;;;;;;;66.60;63.80;;;23.30;1.00;;;;;;2610243;54;20154;-73
2024/04/11 06:32:16;;;;;;;66.30;63.60;;;23.20;1.00;;;;;;2609335;54;20407;-73
2024/04/11 06:34:43;;;;;;;67.87;65.17;;;23.20;1.00;;;;;;2611110;31;20876;-74
2024/04/11 06:37:12;;;;;;;67.97;65.17;;;23.10;1.00;;;;;;2610331;47;20424;-74
2024/04/11 06:39:40;;;;;;;66.03;63.37;;;23.10;1.00;;;;;;2608951;54;20431;-75
2024/04/11 06:42:13;;;;;;;67.10;64.40;;;23.10;1.00;;;;;;2609576;54;20427;-74
2024/04/11 06:44:40;;;;;;;69.03;66.23;;;23.00;1.00;;;;;;2609506;54;20965;-74
2024/04/11 06:47:07;;;;;;;66.67;63.97;;;23.00;1.00;;;;;;2608920;54;20417;-66
2024/04/11 06:49:35;;;;;;;68.20;65.40;;;23.00;1.00;;;;;;2610000;54;20518;-65
2024/04/11 06:52:01;;;;;;;66.73;64.03;;;23.00;1.00;;;;;;2609281;54;20460;-65
2024/04/11 06:54:29;;;;;;;68.97;66.07;;;23.00;1.00;;;;;;2609641;54;20459;-65
2024/04/11 06:56:57;;;;;;;67.87;65.07;;;23.00;1.00;;;;;;2609848;54;20404;-66
2024/04/11 06:59:24;;;;;;;70.50;67.60;;;23.00;1.00;;;;;;2613117;39;20693;-68
2024/04/11 07:01:51;;;;;;;69.17;66.37;;;22.90;1.00;;;;;;2611271;39;20794;-68
2024/04/11 07:04:17;;;;;;;70.60;67.70;;;23.00;1.00;;;;;;2612833;54;21067;-66
2024/04/11 07:06:46;;;;;;;67.67;64.90;;;23.00;1.00;;;;;;2612592;54;20949;-67
2024/04/11 07:09:12;;;;;;;67.90;65.10;;;23.00;1.00;;;;;;2610572;54;20423;-68
2024/04/11 07:11:41;;;;;;;70.57;67.67;;;22.90;1.00;;;;;;2609859;54;20484;-69
2024/04/11 07:14:15;;;;;;;70.40;67.60;;;22.90;1.00;;;;;;2611133;54;20415;-67
2024/04/11 07:16:44;;;;;;;71.30;68.40;;;22.90;1.00;;;;;;2610260;54;20475;-68
2024/04/11 07:19:11;;;;;;;68.30;65.50;;;22.90;1.00;;;;;;2612192;39;20939;-66
2024/04/11 07:21:38;;;;;;;69.50;66.70;;;22.90;1.00;;;;;;2612326;39;20823;-66
2024/04/11 07:24:06;;;;;;;70.27;67.40;;;22.90;1.00;;;;;;2610135;54;20478;-67
2024/04/11 07:26:33;;;;;;;68.67;65.87;;;22.90;1.00;;;;;;2608297;54;20514;-67
2024/04/11 07:29:03;;;;;;;70.50;67.60;;;22.90;1.00;;;;;;2609225;54;20938;-68
2024/04/11 07:31:31;;;;;;;71.10;68.20;;;22.90;1.00;;;;;;2608833;47;20527;-67
2024/04/11 07:34:02;;;;;;;70.53;67.63;;;22.80;1.00;;;;;;2610358;54;20399;-68
2024/04/11 07:36:30;;;;;;;71.43;68.53;;;22.80;1.00;;;;;;2610773;54;20506;-68
2024/04/11 07:38:57;;;;;;;68.40;65.60;;;22.80;1.00;;;;;;2610337;39;20809;-68
2024/04/11 07:41:27;;;;;;;69.40;66.60;;;22.80;1.00;;;;;;2610703;47;20973;-69
2024/04/11 07:43:57;;;;;;;73.03;70.03;;;22.80;1.00;;;;;;2609798;54;20415;-68
2024/04/11 07:46:33;;;;;;;69.37;66.57;;;22.80;1.00;;;;;;2610422;54;20442;-67
2024/04/11 07:48:59;;;;;;;67.43;64.73;;;22.80;1.00;;;;;;2610502;39;20927;-68
2024/04/11 07:51:26;;;;;;;68.13;65.33;;;22.80;1.00;;;;;;2610129;39;20820;-68
2024/04/11 07:53:52;;;;;;;69.80;67.00;;;22.80;1.00;;;;;;2609856;51;20451;-68
2024/04/11 07:56:25;;;;;;;67.90;65.10;;;22.80;1.00;;;;;;2610393;47;21524;-84
2024/04/11 07:58:55;;;;;;;67.57;64.77;;;22.80;1.00;;;;;;2611520;54;20416;-85
2024/04/11 08:01:30;;;;;;;67.03;64.33;;;22.80;1.00;;;;;;2611160;39;20794;-84
2024/04/11 08:04:00;;;;;;;67.30;64.60;;;22.80;1.00;;;;;;2610894;39;20754;-84
2024/04/11 08:06:26;;;;;;;66.13;63.53;;;22.80;1.00;;;;;;2611372;54;20392;-65
2024/04/11 08:08:53;;;;;;;69.90;67.10;;;22.80;1.00;;;;;;2609699;54;20410;-65
2024/04/11 08:11:20;;;;;;;67.97;65.17;;;22.90;1.00;;;;;;2609725;54;20420;-65
2024/04/11 08:13:48;;;;;;;67.37;64.70;;;22.90;1.00;;;;;;2612252;54;20512;-65
2024/04/11 08:16:14;;;;;;;68.40;65.70;;;22.90;1.00;;;;;;2610023;54;20435;-66
2024/04/11 08:18:40;;;;;;;68.07;65.37;;;22.90;1.00;;;;;;2610438;39;20896;-65
2024/04/11 08:21:09;;;;;;;68.17;65.47;;;22.90;1.00;;;;;;2608762;54;20619;-65
2024/04/11 08:23:39;;;;;;;68.60;65.90;;;22.90;1.00;;;;;;2610004;31;20604;-66
2024/04/11 08:26:05;;;;;;;66.63;63.93;;;22.90;1.00;;;;;;2608890;54;20450;-71
2024/04/11 08:28:37;;;;;;;68.53;65.73;;;22.90;1.00;;;;;;2610181;54;20583;-72
2024/04/11 08:31:06;;;;;;;68.70;65.90;;;22.90;1.00;;;;;;2610253;54;20452;-72
2024/04/11 08:33:38;;;;;;;67.30;64.60;;;22.90;1.00;;;;;;2610841;47;20431;-72
2024/04/11 08:36:08;;;;;;;69.63;66.83;;;23.00;1.00;;;;;;2610290;54;20435;-72
2024/04/11 08:38:34;;;;;;;69.60;66.80;;;23.00;1.00;;;;;;2613767;54;20439;-72
2024/04/11 08:41:10;;;;;;;70.47;67.67;;;23.00;1.00;;;;;;2613961;39;20994;-72
2024/04/11 08:43:36;;;;;;;70.10;67.30;;;23.00;1.00;;;;;;2610759;54;21242;-73
2024/04/11 08:46:09;;;;;;;69.40;66.60;;;23.00;1.00;;;;;;2610357;54;20522;-72
2024/04/11 08:48:39;;;;;;;68.10;65.40;;;23.00;1.00;;;;;;2610343;54;20399;-72
2024/04/11 08:51:20;;;;;;;69.63;66.93;;;23.00;1.00;;;;;;2610234;39;20884;-73
2024/04/11 08:54:06;;;;;;;67.87;65.17;;;23.00;1.00;;;;;;2609949;54;20489;-73
2024/04/11 08:56:32;;;;;;;66.63;63.93;;;23.00;1.00;;;;;;2610792;47;20411;-72
2024/04/11 08:58:58;;;;;;;66.17;63.57;;;23.00;1.00;;;;;;2609843;54;20969;-72
2024/04/11 09:01:24;;;;;;;65.93;63.33;;;23.00;1.00;;;;;;2610189;39;20610;-75
2024/04/11 09:03:50;;;;;;;66.33;63.73;;;23.00;1.00;;;;;;2609288;54;20490;-73
2024/04/11 09:06:23;;;;;;;66.10;63.50;;;23.00;1.00;;;;;;2610566;47;20432;-81
2024/04/11 09:08:50;;;;;;;66.80;64.10;;;23.00;1.00;;;;;;2611635;54;20278;-82
2024/04/11 09:11:16;;;;;;;67.20;64.50;;;23.00;1.00;;;;;;2610632;47;20431;-80
2024/04/11 09:13:43;;;;;;;70.70;67.90;;;23.00;1.00;;;;;;2610583;54;20423;-79
2024/04/11 09:16:10;;;;;;;67.97;65.27;;;23.00;1.00;;;;;;2610469;54;20173;-73
2024/04/11 09:18:35;;;;;;;69.17;66.37;;;23.00;1.00;;;;;;2613089;47;20518;-73
2024/04/11 09:21:06;;;;;;;68.57;65.77;;;23.00;1.00;;;;;;2613449;39;20831;-74
2024/04/11 09:23:46;;;;;;;67.83;65.13;;;23.00;1.00;;;;;;2611302;54;20659;-73
2024/04/11 09:26:13;;;;;;;68.50;65.80;;;23.00;1.00;;;;;;2610460;54;20395;-72
2024/04/11 09:28:39;;;;;;;69.17;66.47;;;23.00;1.00;;;;;;2610181;54;20475;-72
2024/04/11 09:31:07;;;;;;;70.33;67.53;;;23.00;1.00;;;;;;2609939;54;20422;-72
2024/04/11 09:33:35;;;;;;;69.00;66.20;;;23.00;1.00;;;;;;2610050;46;20416;-72
2024/04/11 09:36:07;;;;;;;68.80;66.10;;;23.00;1.00;;;;;;2608953;54;20431;-72
2024/04/11 09:38:41;;;;;;;68.13;65.43;;;23.00;1.00;;;;;;2609672;54;20395;-73
2024/04/11 09:41:11;;;;;;;70.33;67.53;;;23.00;1.00;;;;;;2610292;46;20423;-71
2024/04/11 09:43:41;;;;;;;70.60;67.80;;;23.00;1.00;;;;;;2610776;39;20801;-71
2024/04/11 09:46:17;;;;;;;67.70;65.00;;;23.00;1.00;;;;;;2609976;54;20411;-70
2024/04/11 09:48:47;;;;;;;69.00;66.30;;;23.00;1.00;;;;;;2610708;54;20425;-70
2024/04/11 09:51:15;;;;;;;70.17;67.37;;;23.00;1.00;;;;;;2612090;54;20446;-71
2024/04/11 09:53:41;;;;;;;68.93;66.20;;;23.00;1.00;;;;;;2610238;54;20451;-71
2024/04/11 09:56:10;;;;;;;67.93;65.23;;;23.00;1.00;;;;;;2609708;47;21044;-72
2024/04/11 09:58:42;;;;;;;66.80;64.20;;;23.00;1.00;;;;;;2609346;47;20431;-72
2024/04/11 10:01:31;;;;;;;67.80;65.10;;;23.00;1.00;;;;;;2608872;54;20431;-72
2024/04/11 10:04:03;;;;;;;69.00;66.30;;;23.00;1.00;;;;;;2610853;47;20431;-72
2024/04/11 10:06:30;;;;;;;66.30;63.60;;;23.00;1.00;;;;;;2611046;54;20454;-72
2024/04/11 10:09:18;;;;;;;67.30;64.60;;;23.00;1.00;;;;;;2612126;54;20424;-72
2024/04/11 10:11:51;;;;;;;68.30;65.60;;;23.00;1.00;;;;;;2611374;47;20415;-72
2024/04/11 10:14:17;;;;;;;67.30;64.60;;;23.00;1.00;;;;;;2610139;31;20873;-72
2024/04/11 10:16:48;;;;;;;68.10;65.40;;;23.10;1.00;;;;;;2610353;54;20442;-81
2024/04/11 10:19:28;;;;;;;68.20;65.50;;;23.10;1.00;;;;;;2611150;39;20792;-82
2024/04/11 10:22:05;;;;;;;67.77;65.07;;;23.10;1.00;;;;;;2611788;54;20412;-81
2024/04/11 10:24:36;;;;;;;68.80;66.10;;;23.10;1.00;;;;;;2612382;54;20434;-81
2024/04/11 10:27:23;;;;;;;68.40;65.70;;;23.10;1.00;;;;;;2609729;47;20552;-67
2024/04/11 10:29:50;;;;;;;70.33;67.53;;;23.10;1.00;;;;;;2609929;54;20434;-66
2024/04/11 10:32:21;;;;;;;67.97;65.27;;;23.10;1.00;;;;;;2612059;54;20439;-67
2024/04/11 10:34:56;;;;;;;69.17;66.47;;;23.10;1.00;;;;;;2609977;54;20419;-67
2024/04/11 10:37:26;;;;;;;66.20;63.60;;;23.10;1.00;;;;;;2610178;47;20419;-68
2024/04/11 10:39:57;;;;;;;66.50;63.80;;;23.10;1.00;;;;;;2609998;54;20431;-68
2024/04/11 10:42:36;;;;;;;68.57;65.77;;;23.00;1.00;;;;;;2610248;51;20442;-67
2024/04/11 10:45:07;;;;;;;69.67;66.87;;;23.00;1.00;;;;;;2610889;54;20829;-67
2024/04/11 10:47:35;;;;;;;65.87;63.27;;;22.90;1.00;;;;;;2612094;54;20868;-81
2024/04/11 10:50:09;;;;;;;66.80;64.10;;;22.90;1.00;;;;;;2611158;54;20411;-81
2024/04/11 10:52:38;;;;;;;68.93;66.13;;;22.90;1.00;;;;;;2612599;51;20452;-80
2024/04/11 10:55:12;;;;;;;67.03;64.33;;;22.90;1.00;;;;;;2610371;54;20427;-81
2024/04/11 10:57:49;;;;;;;68.33;65.63;;;23.00;1.00;;;;;;2608835;47;20441;-81
2024/04/11 11:00:22;;;;;;;66.83;64.13;;;22.90;1.00;;;;;;2609800;54;20490;-80
2024/04/11 11:02:48;;;;;;;68.20;65.47;;;22.90;1.00;;;;;;2608608;39;20688;-81
2024/04/11 11:05:17;;;;;;;68.07;65.37;;;23.00;1.00;;;;;;2608579;47;20419;-81
2024/04/11 11:07:43;;;;;;;66.83;64.23;;;23.00;1.00;;;;;;2610817;54;20451;-81
2024/04/11 11:10:13;;;;;;;66.20;63.60;;;23.00;1.00;;;;;;2610779;54;21506;-81
2024/04/11 11:12:39;;;;;;;69.00;66.30;;;23.00;1.00;;;;;;2610937;54;20982;-81
2024/04/11 11:15:06;;;;;;;67.07;64.47;;;23.00;1.00;;;;;;2614403;47;20419;-80
2024/04/11 11:17:35;;;;;;;67.83;65.13;;;22.90;1.00;;;;;;2614076;39;20613;-80
2024/04/11 11:20:09;;;;;;;68.27;65.57;;;23.00;1.00;;;;;;2612147;54;20820;-81
2024/04/11 11:22:40;;;;;;;66.27;63.67;;;22.90;1.00;;;;;;2609765;54;20462;-81
2024/04/11 11:25:08;;;;;;;65.60;63.00;;;22.90;1.00;;;;;;2610213;54;20500;-81
2024/04/11 11:27:35;;;;;;;66.67;64.07;;;22.90;1.00;;;;;;2610262;31;20793;-67
2024/04/11 11:30:05;;;;;;;65.97;63.37;;;23.00;1.00;;;;;;2608888;54;20435;-67
2024/04/11 11:32:37;;;;;;;68.07;65.37;;;22.90;1.00;;;;;;2607136;54;21265;-67
2024/04/11 11:35:05;;;;;;;66.07;63.47;;;23.00;1.00;;;;;;2607475;39;20712;-68
2024/04/11 11:37:32;;;;;;;67.17;64.47;;;23.00;1.00;;;;;;2608222;54;20404;-73
2024/04/11 11:40:32;;;;;;;65.43;62.83;;;23.00;1.00;;;;;;2608734;54;20445;-73
2024/04/11 11:42:43;;;;;;;64.37;61.77;;;23.00;1.00;;;;;;2610412;54;20452;-72
2024/04/11 11:45:09;;;;;;;63.80;61.30;;;23.00;1.00;;;;;;2610153;49;20508;-73
2024/04/11 11:47:45;;;;;;;63.50;61.00;;;23.00;1.00;;;;;;2610670;51;20546;-73
2024/04/11 11:50:21;;;;;;;62.50;60.10;;;23.00;1.00;;;;;;2609860;39;20794;-73
2024/04/11 11:52:49;;;;;;;63.80;61.30;;;23.00;1.00;;;;;;2610727;47;20410;-73
2024/04/11 11:55:19;;;;;;;65.80;63.20;;;23.00;1.00;;;;;;2612088;39;20854;-74
2024/04/11 11:58:03;;;;;;;63.90;61.30;;;23.00;1.00;;;;;;2612303;54;20518;-67
2024/04/11 12:00:32;;;;;;;63.90;61.30;;;23.10;1.00;;;;;;2608931;54;21029;-67
2024/04/11 12:03:11;;;;;;;64.50;61.90;;;23.10;1.00;;;;;;2608336;54;20420;-66
2024/04/11 12:05:39;;;;;;;64.13;61.53;;;23.10;1.00;;;;;;2609469;54;20964;-66
2024/04/11 12:08:08;;;;;;;63.60;61.10;;;23.10;1.00;;;;;;2609651;47;20423;-68
2024/04/11 12:14:05;;;;;;;61.90;59.50;;;23.20;1.00;;;;;;2606061;54;20515;-69
2024/04/11 12:16:06;;;;;;;64.90;62.33;;;23.10;1.00;;;;;;2606010;54;20432;-68
2024/04/11 12:18:31;;;;;;;65.97;63.37;;;23.10;1.00;;;;;;2607130;39;20762;-68
2024/04/11 12:20:57;;;;;;;65.23;62.63;;;23.10;1.00;;;;;;2606804;47;20171;-67
2024/04/11 12:23:27;;;;;;;62.80;60.30;;;23.10;1.00;;;;;;2608317;54;20158;-65
2024/04/11 12:25:53;;;;;;;65.13;62.63;;;23.10;1.00;;;;;;2609570;39;20697;-68
2024/04/11 12:29:12;;;;;;;64.60;62.00;;;23.10;1.00;;;;;;2610007;54;20466;-67
2024/04/11 12:31:38;;;;;;;64.00;61.50;;;23.10;1.00;;;;;;2609568;54;20435;-68
2024/04/11 12:34:09;;;;;;;64.60;62.10;;;23.10;1.00;;;;;;2610042;54;20450;-67
2024/04/11 12:36:42;;;;;;;63.40;60.90;;;23.10;1.00;;;;;;2609889;31;20756;-78
2024/04/11 12:39:21;;;;;;;65.13;62.53;;;23.10;1.00;;;;;;2611026;54;20946;-78
2024/04/11 12:41:50;;;;;;;66.97;64.37;;;23.00;1.00;;;;;;2610358;47;20496;-77
2024/04/11 12:44:24;;;;;;;64.20;61.70;;;23.10;1.00;;;;;;2611138;39;20800;-77
2024/04/11 12:46:52;;;;;;;65.43;62.83;;;23.00;1.00;;;;;;2609991;54;20501;-74
2024/04/11 12:49:25;;;;;;;64.53;62.03;;;23.10;1.00;;;;;;2610756;47;20426;-73